Time;durP1;ratioP1;P1;durP2;ratioP2;P2;SDS_P1;SDS_P2;PMS_P1;PMS_P2;Temp;Humidity;BMP_temperature;BMP_pressure;BME280_temperature;BME280_humidity;BME280_pressure;Samples;Min_cycle;Max_cycle;Signal;HPM_P1;HPM_P2
2023/05/16 04:02:52;;;;;;;14.97;13.53;;;13.90;82.50;;;;;;4993616;28;20866;-74
2023/05/16 04:05:19;;;;;;;15.33;13.93;;;13.80;82.80;;;;;;4994219;28;20942;-73
2023/05/16 04:07:45;;;;;;;16.83;15.33;;;14.00;82.30;;;;;;4994508;28;20449;-73
2023/05/16 04:10:12;;;;;;;14.80;13.50;;;14.10;82.10;;;;;;4994482;28;20445;-73
2023/05/16 04:12:39;;;;;;;14.97;13.57;;;14.10;82.20;;;;;;4994379;28;20468;-74
2023/05/16 04:15:07;;;;;;;14.80;13.60;;;14.10;82.10;;;;;;4994814;28;20619;-73
2023/05/16 04:17:33;;;;;;;14.30;13.00;;;14.20;82.10;;;;;;4994344;28;20460;-73
2023/05/16 04:20:02;;;;;;;15.10;13.90;;;14.30;81.70;;;;;;4993968;28;20940;-73
2023/05/16 04:22:28;;;;;;;15.07;13.77;;;14.40;81.30;;;;;;4994217;28;20512;-73
2023/05/16 04:24:55;;;;;;;15.27;13.77;;;14.30;81.40;;;;;;4994163;28;20449;-75
2023/05/16 04:27:22;;;;;;;16.37;13.50;;;14.40;81.60;;;;;;4994214;28;20457;-75
2023/05/16 04:29:49;;;;;;;15.47;14.07;;;14.50;81.30;;;;;;4994069;28;20449;-75
2023/05/16 04:32:16;;;;;;;15.23;13.73;;;14.40;81.30;;;;;;4994084;28;20476;-75
2023/05/16 04:34:44;;;;;;;16.07;14.67;;;14.40;81.80;;;;;;4994177;28;20572;-75
2023/05/16 04:37:12;;;;;;;14.47;13.17;;;14.40;82.30;;;;;;4994101;28;20464;-74
2023/05/16 04:39:38;;;;;;;15.43;14.03;;;14.50;82.70;;;;;;4993750;28;20454;-74
2023/05/16 04:42:06;;;;;;;14.97;13.77;;;14.50;82.20;;;;;;4994034;28;20556;-73
2023/05/16 04:44:33;;;;;;;15.00;13.70;;;14.60;81.80;;;;;;4993978;28;20445;-73
2023/05/16 04:47:00;;;;;;;15.43;14.17;;;14.70;81.60;;;;;;4994034;28;20457;-73
2023/05/16 04:49:27;;;;;;;13.90;12.70;;;14.80;81.30;;;;;;4994019;28;20462;-73
2023/05/16 04:51:54;;;;;;;16.00;14.70;;;14.70;81.40;;;;;;4993601;28;20477;-74
2023/05/16 04:54:22;;;;;;;15.63;14.33;;;14.80;81.40;;;;;;4993756;28;20477;-74
2023/05/16 04:56:48;;;;;;;14.87;13.37;;;14.90;80.80;;;;;;4993885;28;20498;-74
2023/05/16 04:59:15;;;;;;;14.90;13.60;;;14.90;80.80;;;;;;4993819;28;20445;-74
2023/05/16 05:01:42;;;;;;;14.57;13.20;;;14.90;80.70;;;;;;4996990;28;20907;-75
2023/05/16 05:04:08;;;;;;;13.80;12.67;;;14.80;80.90;;;;;;4997575;28;20934;-75
2023/05/16 05:06:35;;;;;;;15.73;14.33;;;14.70;81.20;;;;;;4997799;28;20503;-74
2023/05/16 05:09:01;;;;;;;16.63;15.13;;;14.70;81.30;;;;;;4997755;28;20453;-74
2023/05/16 05:11:29;;;;;;;15.13;13.83;;;14.60;81.30;;;;;;4997652;28;20474;-74
2023/05/16 05:13:56;;;;;;;15.97;14.47;;;14.70;81.20;;;;;;4997545;28;20507;-74
2023/05/16 05:16:23;;;;;;;15.37;13.97;;;14.50;81.50;;;;;;4997821;28;20894;-74
2023/05/16 05:18:50;;;;;;;15.00;13.70;;;14.60;81.50;;;;;;4997266;28;21017;-75
2023/05/16 05:21:17;;;;;;;15.67;14.27;;;14.60;81.30;;;;;;4997174;28;20894;-74
2023/05/16 05:23:44;;;;;;;13.80;12.60;;;14.60;81.60;;;;;;4997488;28;20452;-75
2023/05/16 05:26:11;;;;;;;15.90;14.40;;;14.60;81.70;;;;;;4997211;28;20452;-75
2023/05/16 05:28:39;;;;;;;15.20;13.90;;;14.40;81.90;;;;;;4997342;28;20449;-75
2023/05/16 05:31:06;;;;;;;14.40;13.20;;;14.40;82.30;;;;;;4996979;28;21005;-74
2023/05/16 05:33:33;;;;;;;14.60;13.30;;;14.30;82.60;;;;;;4997345;28;20453;-74
2023/05/16 05:36:00;;;;;;;15.00;13.70;;;14.30;82.70;;;;;;4997209;28;20484;-74
2023/05/16 05:38:27;;;;;;;15.10;13.80;;;14.40;82.50;;;;;;4997195;28;20449;-74
2023/05/16 05:40:53;;;;;;;14.73;13.37;;;14.40;82.60;;;;;;4997093;28;20477;-74
2023/05/16 05:43:20;;;;;;;14.30;13.07;;;14.60;82.10;;;;;;4997158;28;20569;-74
2023/05/16 05:45:49;;;;;;;13.87;12.70;;;14.60;82.00;;;;;;4997049;28;20445;-75
2023/05/16 05:48:16;;;;;;;14.20;13.00;;;14.60;81.90;;;;;;4997067;28;20453;-75
2023/05/16 05:50:43;;;;;;;13.60;12.40;;;14.60;82.00;;;;;;4996976;28;20872;-74
2023/05/16 05:53:10;;;;;;;14.93;13.70;;;14.50;81.90;;;;;;4996988;28;20495;-74
2023/05/16 05:55:36;;;;;;;14.40;13.20;;;14.40;82.20;;;;;;4996798;28;20575;-75
2023/05/16 05:58:03;;;;;;;14.17;13.07;;;14.50;82.10;;;;;;4996838;28;20496;-75
2023/05/16 06:00:30;;;;;;;14.23;13.03;;;14.60;81.80;;;;;;4996346;28;20480;-74
2023/05/16 06:02:58;;;;;;;14.50;13.20;;;14.30;82.50;;;;;;4996459;28;20862;-75
2023/05/16 06:05:24;;;;;;;13.83;12.67;;;14.40;82.40;;;;;;4996688;28;20456;-73
2023/05/16 06:07:51;;;;;;;14.50;13.30;;;14.50;82.00;;;;;;4996674;28;20453;-75
2023/05/16 06:10:18;;;;;;;14.27;13.07;;;14.50;82.00;;;;;;4996613;28;20500;-75
2023/05/16 06:12:44;;;;;;;13.57;12.47;;;14.60;81.80;;;;;;4996420;28;20481;-75
2023/05/16 06:15:11;;;;;;;13.53;12.33;;;14.50;82.20;;;;;;4996110;28;20487;-74
2023/05/16 06:17:38;;;;;;;12.77;11.67;;;14.50;82.00;;;;;;4996526;28;20484;-75
2023/05/16 06:20:08;;;;;;;12.47;11.47;;;14.40;82.10;;;;;;4996531;28;20820;-75
2023/05/16 06:22:34;;;;;;;12.53;11.53;;;14.50;82.00;;;;;;4996430;28;20520;-75
2023/05/16 06:25:01;;;;;;;13.43;12.33;;;14.40;82.30;;;;;;4996060;28;20814;-75
2023/05/16 06:27:28;;;;;;;13.00;11.70;;;14.50;82.00;;;;;;4996338;28;20537;-74
2023/05/16 06:29:55;;;;;;;13.07;11.97;;;14.50;81.90;;;;;;4996372;28;20453;-74
2023/05/16 06:32:21;;;;;;;12.07;10.97;;;14.50;81.60;;;;;;4996634;28;20465;-75
2023/05/16 06:34:48;;;;;;;12.43;11.33;;;14.50;81.80;;;;;;4996438;28;20488;-74
2023/05/16 06:37:17;;;;;;;12.10;11.10;;;14.50;81.60;;;;;;4996138;28;20454;-74
2023/05/16 06:39:44;;;;;;;11.87;10.83;;;14.60;81.50;;;;;;4995816;28;20799;-75
2023/05/16 06:42:11;;;;;;;11.70;10.70;;;14.70;81.40;;;;;;4995878;28;20912;-75
2023/05/16 06:44:38;;;;;;;12.23;11.23;;;14.80;81.30;;;;;;4996316;28;20541;-75
2023/05/16 06:47:05;;;;;;;11.70;10.70;;;14.80;81.00;;;;;;4995930;28;20453;-74
2023/05/16 06:49:32;;;;;;;12.03;11.03;;;14.70;81.10;;;;;;4995955;28;20453;-74
2023/05/16 06:51:58;;;;;;;10.70;9.70;;;14.80;81.10;;;;;;4995825;28;20504;-74
2023/05/16 06:54:26;;;;;;;10.80;9.90;;;14.90;80.80;;;;;;4995759;28;20504;-73
2023/05/16 06:56:53;;;;;;;10.43;9.63;;;14.90;80.70;;;;;;4995804;28;20480;-72
2023/05/16 06:59:19;;;;;;;10.63;9.73;;;15.10;79.80;;;;;;4995699;28;20500;-72
2023/05/16 07:01:46;;;;;;;10.30;9.30;;;15.10;79.80;;;;;;4995400;28;20485;-73
2023/05/16 07:04:13;;;;;;;9.50;8.70;;;14.90;79.50;;;;;;4995603;28;20478;-72
2023/05/16 07:06:40;;;;;;;10.07;9.23;;;14.80;79.90;;;;;;4995554;28;20883;-73
2023/05/16 07:09:07;;;;;;;9.77;8.90;;;14.90;79.30;;;;;;4995463;28;20453;-73
2023/05/16 07:11:35;;;;;;;9.67;8.87;;;14.80;79.90;;;;;;4995397;28;20552;-73
2023/05/16 07:14:01;;;;;;;9.37;8.57;;;14.80;80.10;;;;;;4995409;28;20449;-73
2023/05/16 07:16:28;;;;;;;9.97;9.17;;;14.90;80.00;;;;;;4995500;28;20481;-73
2023/05/16 07:18:54;;;;;;;10.17;9.13;;;14.80;80.20;;;;;;4995352;28;20460;-72
2023/05/16 07:21:21;;;;;;;10.60;9.70;;;14.70;80.00;;;;;;4995239;28;20831;-72
2023/05/16 07:23:48;;;;;;;9.17;8.47;;;14.50;80.50;;;;;;4994359;28;20871;-72
2023/05/16 07:26:14;;;;;;;9.07;8.27;;;14.50;81.00;;;;;;4995004;28;21006;-72
2023/05/16 07:28:42;;;;;;;9.40;8.50;;;14.60;80.60;;;;;;4994896;28;20877;-72
2023/05/16 07:31:09;;;;;;;8.60;7.80;;;14.50;80.10;;;;;;4994864;28;20990;-72
2023/05/16 07:33:36;;;;;;;8.07;7.37;;;14.60;80.60;;;;;;4995103;28;20461;-73
2023/05/16 07:36:03;;;;;;;6.93;6.33;;;14.90;80.10;;;;;;4995163;28;20484;-73
2023/05/16 07:38:30;;;;;;;7.47;6.77;;;15.00;79.10;;;;;;4995089;28;20496;-72
2023/05/16 07:40:57;;;;;;;9.43;8.53;;;15.10;78.70;;;;;;4995170;28;20473;-73
2023/05/16 07:43:23;;;;;;;8.53;7.83;;;15.00;78.70;;;;;;4995197;28;20456;-72
2023/05/16 07:45:52;;;;;;;8.13;7.43;;;14.90;79.30;;;;;;4995223;28;20480;-72
2023/05/16 07:48:18;;;;;;;9.47;8.67;;;14.90;79.20;;;;;;4995092;28;20565;-73
2023/05/16 07:50:45;;;;;;;8.43;7.70;;;14.70;79.60;;;;;;4995283;28;20523;-72
2023/05/16 07:53:12;;;;;;;6.30;5.80;;;14.60;79.90;;;;;;4995227;28;20449;-72
2023/05/16 07:55:39;;;;;;;6.33;5.80;;;14.60;79.80;;;;;;4994675;28;20485;-72
2023/05/16 07:58:05;;;;;;;7.00;6.40;;;14.60;79.30;;;;;;4994536;28;20441;-71
2023/05/16 08:00:32;;;;;;;6.30;5.77;;;14.70;79.30;;;;;;4994569;28;20441;-73
2023/05/16 08:03:00;;;;;;;6.60;6.00;;;14.60;79.70;;;;;;4994657;28;20445;-72
2023/05/16 08:05:27;;;;;;;8.03;7.40;;;14.80;79.50;;;;;;4994417;28;20437;-73
2023/05/16 08:07:54;;;;;;;7.30;6.70;;;14.80;79.40;;;;;;4994512;28;20449;-73
2023/05/16 08:10:20;;;;;;;8.30;7.60;;;15.00;80.00;;;;;;4994397;28;20512;-73
2023/05/16 08:12:47;;;;;;;7.43;6.73;;;15.00;79.60;;;;;;4994345;28;20453;-72
2023/05/16 08:15:14;;;;;;;7.63;7.03;;;15.10;79.70;;;;;;4994200;28;20481;-72
2023/05/16 08:17:41;;;;;;;7.93;7.30;;;15.10;80.00;;;;;;4994336;28;20818;-73
2023/05/16 08:20:10;;;;;;;7.70;7.00;;;15.20;80.40;;;;;;4993915;28;20812;-72
2023/05/16 08:22:36;;;;;;;7.60;7.00;;;15.20;78.70;;;;;;4993816;28;21001;-72
2023/05/16 08:25:03;;;;;;;8.20;7.50;;;15.10;79.00;;;;;;4993839;28;20947;-73
2023/05/16 08:27:30;;;;;;;8.00;7.30;;;15.20;79.10;;;;;;4994133;28;20456;-72
2023/05/16 08:29:56;;;;;;;8.00;7.30;;;15.20;78.70;;;;;;4994095;28;20485;-73
2023/05/16 08:32:23;;;;;;;7.93;7.23;;;15.20;79.00;;;;;;4994002;28;20540;-73
2023/05/16 08:34:50;;;;;;;8.27;7.57;;;15.10;78.90;;;;;;4993442;28;20446;-73
2023/05/16 08:37:18;;;;;;;8.90;8.20;;;15.00;79.30;;;;;;4993653;28;20954;-72
2023/05/16 08:39:45;;;;;;;8.87;8.07;;;15.00;79.50;;;;;;4993970;28;20445;-73
2023/05/16 08:42:12;;;;;;;9.63;8.73;;;15.00;79.60;;;;;;4993920;28;20469;-72
2023/05/16 08:44:38;;;;;;;8.70;7.87;;;14.80;80.00;;;;;;4993583;28;20793;-73
2023/05/16 08:47:12;;;;;;;8.47;7.53;;;14.60;80.60;;;;;;4993687;28;20939;-71
2023/05/16 08:49:41;;;;;;;7.23;6.73;;;14.70;80.60;;;;;;4994118;28;21013;-73
2023/05/16 08:52:09;;;;;;;7.00;6.40;;;14.60;80.50;;;;;;4994128;28;20552;-72
2023/05/16 08:54:37;;;;;;;6.90;6.33;;;14.60;80.30;;;;;;4993878;28;21010;-73
2023/05/16 08:57:05;;;;;;;7.27;6.67;;;14.50;80.10;;;;;;4994129;28;20484;-72
2023/05/16 08:59:32;;;;;;;6.07;5.57;;;14.50;80.20;;;;;;4994221;28;20476;-74
2023/05/16 09:01:59;;;;;;;5.63;5.20;;;14.40;79.40;;;;;;4993758;28;20485;-72
2023/05/16 09:04:26;;;;;;;6.23;5.70;;;14.30;79.50;;;;;;4993830;28;20472;-73
2023/05/16 09:06:53;;;;;;;5.77;5.27;;;14.20;79.70;;;;;;4993746;28;20488;-72
2023/05/16 09:09:19;;;;;;;6.90;6.33;;;14.30;79.80;;;;;;4993939;28;20453;-73
2023/05/16 09:11:48;;;;;;;6.60;6.10;;;14.20;79.60;;;;;;4993954;28;20539;-73
2023/05/16 09:14:14;;;;;;;6.60;6.10;;;14.10;80.20;;;;;;4994025;28;20450;-73
2023/05/16 09:16:41;;;;;;;6.67;6.07;;;14.20;80.20;;;;;;4993859;28;20481;-73
2023/05/16 09:19:12;;;;;;;6.80;6.20;;;14.20;80.50;;;;;;4993826;28;20452;-72
2023/05/16 09:21:40;;;;;;;6.63;6.03;;;14.10;81.50;;;;;;4993748;28;20535;-73
2023/05/16 09:24:08;;;;;;;7.80;7.10;;;14.10;81.80;;;;;;4993594;28;20457;-72
2023/05/16 09:26:36;;;;;;;8.20;7.50;;;14.20;82.40;;;;;;4993329;28;20449;-73
2023/05/16 09:29:10;;;;;;;7.50;6.90;;;14.20;82.30;;;;;;4993585;28;20807;-73
2023/05/16 09:31:37;;;;;;;8.33;7.60;;;14.30;82.30;;;;;;4993533;28;20552;-72
2023/05/16 09:34:07;;;;;;;8.00;7.30;;;14.30;82.50;;;;;;4993547;28;20450;-72
2023/05/16 09:36:33;;;;;;;8.63;7.83;;;14.30;82.50;;;;;;4993491;28;20485;-73
2023/05/16 09:39:00;;;;;;;8.83;7.93;;;14.40;83.30;;;;;;4993485;28;20445;-72
2023/05/16 09:41:27;;;;;;;8.60;7.80;;;14.60;82.60;;;;;;4993490;28;20467;-73
2023/05/16 09:43:55;;;;;;;8.50;7.90;;;14.60;82.20;;;;;;4993109;28;20852;-73
2023/05/16 09:46:26;;;;;;;7.80;7.20;;;14.70;82.20;;;;;;4994580;28;20441;-73
2023/05/16 09:48:53;;;;;;;8.90;8.13;;;15.00;81.80;;;;;;4997359;28;20433;-74
2023/05/16 09:51:22;;;;;;;8.67;7.97;;;15.20;80.50;;;;;;4996955;28;20469;-72
2023/05/16 09:53:49;;;;;;;8.93;8.23;;;15.40;80.70;;;;;;4996911;28;20504;-73
2023/05/16 09:56:16;;;;;;;7.73;7.03;;;15.50;80.00;;;;;;4996864;28;20535;-72
2023/05/16 09:58:44;;;;;;;9.07;8.27;;;15.50;79.40;;;;;;4996655;28;21010;-73
2023/05/16 10:01:11;;;;;;;8.73;8.03;;;15.70;78.70;;;;;;4996465;28;20493;-72
2023/05/16 10:03:41;;;;;;;7.80;7.10;;;15.80;78.00;;;;;;4996797;28;20442;-73
2023/05/16 10:06:09;;;;;;;8.90;8.20;;;15.70;78.50;;;;;;4996668;28;20544;-72
2023/05/16 10:08:36;;;;;;;8.77;7.87;;;15.80;78.60;;;;;;4996613;28;20449;-73
2023/05/16 10:11:05;;;;;;;8.00;7.30;;;15.90;77.90;;;;;;4996577;28;20516;-72
2023/05/16 10:13:33;;;;;;;9.13;8.33;;;15.70;77.70;;;;;;4997264;28;20456;-72
2023/05/16 10:16:02;;;;;;;8.73;8.00;;;15.30;78.70;;;;;;4996552;28;20481;-72
2023/05/16 10:18:30;;;;;;;8.73;7.93;;;15.50;79.30;;;;;;4996595;28;20461;-73
2023/05/16 10:21:05;;;;;;;8.17;7.33;;;15.40;79.10;;;;;;4996078;28;21029;-72
2023/05/16 10:23:34;;;;;;;7.80;7.20;;;15.40;78.90;;;;;;4996467;28;20516;-71
2023/05/16 10:26:03;;;;;;;7.80;6.73;;;15.60;78.80;;;;;;4996362;28;20540;-73
2023/05/16 10:28:29;;;;;;;7.90;7.30;;;15.90;78.90;;;;;;4996402;28;20477;-72
2023/05/16 10:30:57;;;;;;;7.87;7.23;;;16.10;76.80;;;;;;4996523;28;20466;-72
2023/05/16 10:33:23;;;;;;;6.90;6.30;;;16.30;76.10;;;;;;4996393;28;20449;-72
2023/05/16 10:35:51;;;;;;;7.43;6.83;;;16.10;75.30;;;;;;4996117;28;20559;-73
2023/05/16 10:38:20;;;;;;;7.40;6.80;;;15.80;74.90;;;;;;4996199;28;20450;-73
2023/05/16 10:40:48;;;;;;;6.77;6.17;;;15.60;75.70;;;;;;4996020;28;20465;-73
2023/05/16 10:43:24;;;;;;;6.57;6.00;;;15.70;76.40;;;;;;4995997;28;20504;-72
2023/05/16 10:45:55;;;;;;;7.00;6.43;;;15.60;76.00;;;;;;4996000;28;20488;-73
2023/05/16 10:48:29;;;;;;;6.57;5.97;;;15.60;76.90;;;;;;4996519;28;20430;-72
2023/05/16 10:50:55;;;;;;;6.33;5.80;;;15.70;77.30;;;;;;4996068;28;20477;-72
2023/05/16 10:53:31;;;;;;;6.60;6.00;;;15.60;77.50;;;;;;4995804;28;20508;-72
2023/05/16 10:56:11;;;;;;;6.70;6.10;;;15.60;77.60;;;;;;4995844;28;20559;-72
2023/05/16 10:58:42;;;;;;;5.83;5.33;;;15.50;77.90;;;;;;4994863;28;20445;-72
2023/05/16 11:01:19;;;;;;;6.43;5.83;;;15.50;78.10;;;;;;4999988;28;20481;-71
2023/05/16 11:04:07;;;;;;;7.00;6.40;;;15.50;78.00;;;;;;5010021;28;20891;-72
2023/05/16 11:06:43;;;;;;;7.00;6.40;;;15.40;78.80;;;;;;5002800;28;20921;-72
2023/05/16 11:09:25;;;;;;;7.20;6.60;;;15.20;80.20;;;;;;5002027;28;20445;-73
2023/05/16 11:12:00;;;;;;;6.03;5.53;;;15.00;81.40;;;;;;5001028;28;20469;-74
2023/05/16 11:14:30;;;;;;;6.60;6.03;;;14.90;82.00;;;;;;5000511;28;20512;-71
2023/05/16 11:17:02;;;;;;;5.90;5.40;;;14.80;81.90;;;;;;5000983;28;20560;-73
2023/05/16 11:19:34;;;;;;;5.70;5.13;;;14.80;82.40;;;;;;4998142;28;20469;-73
2023/05/16 11:22:25;;;;;;;6.57;5.83;;;14.80;82.60;;;;;;5000152;28;20497;-72
2023/05/16 11:24:55;;;;;;;6.30;5.80;;;14.70;83.00;;;;;;4999024;28;20445;-72
2023/05/16 11:27:27;;;;;;;6.20;5.60;;;14.60;83.10;;;;;;5000599;28;20457;-73
2023/05/16 11:29:56;;;;;;;5.90;5.10;;;14.60;83.50;;;;;;5000160;28;20453;-72
2023/05/16 11:32:24;;;;;;;5.50;5.00;;;14.50;83.60;;;;;;5001308;28;20986;-72
2023/05/16 11:34:52;;;;;;;4.73;4.33;;;14.50;83.90;;;;;;5001602;28;20461;-73
2023/05/16 11:37:19;;;;;;;5.40;4.20;;;14.40;84.30;;;;;;5000239;28;20481;-73
2023/05/16 11:39:46;;;;;;;4.53;4.07;;;14.30;84.60;;;;;;4999949;28;20441;-73
2023/05/16 11:42:14;;;;;;;5.17;4.67;;;14.30;85.00;;;;;;4995490;28;20478;-72
2023/05/16 11:44:41;;;;;;;4.70;4.20;;;14.30;84.90;;;;;;4994616;28;20901;-72
2023/05/16 11:47:08;;;;;;;4.47;4.07;;;14.40;84.90;;;;;;4994857;28;20441;-73
2023/05/16 11:49:36;;;;;;;4.73;4.20;;;14.40;84.70;;;;;;4994839;28;20449;-73
2023/05/16 11:52:03;;;;;;;4.73;4.33;;;14.30;84.70;;;;;;4994811;28;20508;-73
2023/05/16 11:54:30;;;;;;;4.40;4.00;;;14.30;85.20;;;;;;4994668;28;20453;-72
2023/05/16 11:56:57;;;;;;;4.63;4.13;;;14.30;85.50;;;;;;4994574;28;20481;-72
2023/05/16 11:59:25;;;;;;;4.40;4.00;;;14.30;85.00;;;;;;4994387;28;20450;-72
2023/05/16 12:01:52;;;;;;;5.03;4.00;;;14.20;85.10;;;;;;4994463;28;20544;-72
2023/05/16 12:04:19;;;;;;;4.67;3.63;;;14.10;85.50;;;;;;4994969;28;20453;-73
2023/05/16 12:06:59;;;;;;;4.10;3.70;;;14.20;85.60;;;;;;4994273;28;20943;-72
2023/05/16 12:09:26;;;;;;;4.10;3.70;;;14.30;85.50;;;;;;4994360;28;20507;-73
2023/05/16 12:11:53;;;;;;;5.30;3.77;;;14.30;85.40;;;;;;4994364;28;20473;-72
2023/05/16 12:14:20;;;;;;;4.00;3.43;;;14.40;85.50;;;;;;4994483;28;20457;-72
2023/05/16 12:16:49;;;;;;;3.97;3.40;;;14.30;84.90;;;;;;4994363;28;20594;-72
2023/05/16 12:19:16;;;;;;;3.40;3.07;;;14.40;85.10;;;;;;4994322;28;20453;-72
2023/05/16 12:21:42;;;;;;;4.17;3.77;;;14.40;84.90;;;;;;4994212;28;20470;-73
2023/05/16 12:24:10;;;;;;;5.00;4.40;;;14.40;84.70;;;;;;4994200;28;20557;-72
2023/05/16 12:26:41;;;;;;;3.83;3.43;;;14.40;84.70;;;;;;4994198;28;20532;-72
2023/05/16 12:29:10;;;;;;;4.10;3.70;;;14.40;84.50;;;;;;4994242;28;20465;-72
2023/05/16 12:31:37;;;;;;;4.73;4.00;;;14.40;85.00;;;;;;4994183;28;20894;-72
2023/05/16 12:34:15;;;;;;;3.70;3.40;;;14.50;84.40;;;;;;4994132;28;20449;-72
2023/05/16 12:36:43;;;;;;;4.43;4.03;;;14.40;84.10;;;;;;4994325;28;20465;-73
2023/05/16 12:39:12;;;;;;;4.83;3.67;;;14.40;84.00;;;;;;4993656;28;20458;-72
2023/05/16 12:41:41;;;;;;;5.07;4.57;;;14.30;84.70;;;;;;4994184;28;20477;-72
2023/05/16 12:44:12;;;;;;;4.17;3.80;;;14.40;84.90;;;;;;4994019;28;20484;-72
2023/05/16 12:46:41;;;;;;;4.40;4.00;;;14.60;85.00;;;;;;4994008;28;20437;-73
2023/05/16 12:49:10;;;;;;;4.17;3.80;;;14.50;83.90;;;;;;4997525;28;20449;-73
2023/05/16 12:51:36;;;;;;;4.17;3.27;;;14.50;83.70;;;;;;4998101;28;20490;-76
2023/05/16 12:54:11;;;;;;;3.63;3.30;;;14.60;83.50;;;;;;4998260;28;20461;-73
2023/05/16 12:56:38;;;;;;;4.73;3.23;;;14.50;83.60;;;;;;4998602;28;20480;-73
2023/05/16 12:59:05;;;;;;;4.90;3.10;;;14.60;83.90;;;;;;4997557;28;20448;-73
2023/05/16 13:01:31;;;;;;;3.33;3.03;;;14.70;83.50;;;;;;4993603;28;21072;-72
2023/05/16 13:03:58;;;;;;;4.53;3.30;;;14.60;82.90;;;;;;4993893;28;20507;-73
2023/05/16 13:06:26;;;;;;;3.03;2.73;;;14.60;82.80;;;;;;4993790;28;20446;-73
2023/05/16 13:08:53;;;;;;;3.10;2.40;;;14.50;82.60;;;;;;4993801;28;20452;-73
2023/05/16 13:11:20;;;;;;;3.40;2.33;;;14.20;82.70;;;;;;4993417;28;20987;-72
2023/05/16 13:13:47;;;;;;;2.77;2.57;;;14.10;83.90;;;;;;4993678;28;20488;-72
2023/05/16 13:16:14;;;;;;;3.37;2.37;;;14.20;83.30;;;;;;4993719;28;20453;-72
2023/05/16 13:18:40;;;;;;;4.30;2.10;;;14.20;83.30;;;;;;4993612;28;20569;-73
2023/05/16 13:21:07;;;;;;;3.90;2.37;;;14.30;83.20;;;;;;4994521;28;20520;-72
2023/05/16 13:23:35;;;;;;;3.30;2.57;;;14.20;82.80;;;;;;4997558;28;20484;-73
2023/05/16 13:26:02;;;;;;;3.10;2.80;;;14.30;83.00;;;;;;4997458;28;20449;-73
2023/05/16 13:28:29;;;;;;;3.97;2.43;;;14.20;82.10;;;;;;4997496;28;20499;-73
2023/05/16 13:30:55;;;;;;;2.60;1.90;;;14.20;82.10;;;;;;4997351;28;20527;-72
2023/05/16 13:33:23;;;;;;;2.50;1.80;;;13.90;81.00;;;;;;4997659;28;20457;-72
2023/05/16 13:35:50;;;;;;;3.17;2.23;;;13.80;82.00;;;;;;4997369;28;20540;-73
2023/05/16 13:38:17;;;;;;;2.80;2.30;;;13.60;82.00;;;;;;4998272;28;20580;-74
2023/05/16 13:40:45;;;;;;;2.70;1.93;;;13.60;81.80;;;;;;5000453;28;20519;-72
2023/05/16 13:43:14;;;;;;;2.90;2.37;;;13.50;82.20;;;;;;5002463;28;20449;-74
2023/05/16 13:45:41;;;;;;;2.90;2.20;;;13.40;83.30;;;;;;5005546;28;20453;-74
2023/05/16 13:48:07;;;;;;;2.60;1.87;;;13.50;85.40;;;;;;5003249;28;20449;-74
2023/05/16 13:50:34;;;;;;;2.10;1.50;;;13.50;84.10;;;;;;5002832;28;20965;-74
2023/05/16 13:53:01;;;;;;;2.57;1.80;;;13.60;83.10;;;;;;5001684;28;20463;-74
2023/05/16 13:55:28;;;;;;;2.53;1.73;;;13.70;81.70;;;;;;5001395;28;20922;-74
2023/05/16 13:57:56;;;;;;;2.37;1.53;;;13.70;81.40;;;;;;5001676;28;20473;-74
2023/05/16 14:00:22;;;;;;;2.47;1.83;;;13.60;81.30;;;;;;5002378;28;20456;-74
2023/05/16 14:02:49;;;;;;;2.17;1.63;;;13.70;81.40;;;;;;5001591;28;20934;-72
2023/05/16 14:05:16;;;;;;;2.67;1.53;;;13.80;81.50;;;;;;5002269;28;21013;-73
2023/05/16 14:07:43;;;;;;;2.63;1.40;;;13.80;81.00;;;;;;5001474;28;20476;-73
2023/05/16 14:10:10;;;;;;;1.90;1.37;;;13.70;80.90;;;;;;5002483;28;20461;-74
2023/05/16 14:12:37;;;;;;;2.80;1.83;;;13.80;81.10;;;;;;5001234;28;20480;-74
2023/05/16 14:15:07;;;;;;;2.40;1.77;;;13.70;80.80;;;;;;5001139;28;20548;-74
2023/05/16 14:17:33;;;;;;;3.43;1.77;;;13.70;81.20;;;;;;5000648;28;21021;-75
2023/05/16 14:20:00;;;;;;;2.50;1.50;;;13.70;81.30;;;;;;5001055;28;20433;-74
2023/05/16 14:22:27;;;;;;;2.93;1.60;;;13.70;81.30;;;;;;5002047;28;20469;-74
2023/05/16 14:24:54;;;;;;;2.97;1.73;;;13.80;80.90;;;;;;5001496;28;20492;-73
2023/05/16 14:27:20;;;;;;;2.63;1.40;;;13.90;80.60;;;;;;5002425;28;20527;-76
2023/05/16 14:29:47;;;;;;;1.93;1.37;;;13.90;81.40;;;;;;5001768;28;20445;-74
2023/05/16 14:32:15;;;;;;;2.43;1.30;;;13.70;80.00;;;;;;5000970;28;20504;-73
2023/05/16 14:34:42;;;;;;;2.30;1.47;;;13.70;80.60;;;;;;5000717;28;20458;-73
2023/05/16 14:37:10;;;;;;;2.80;1.37;;;13.70;81.10;;;;;;5001426;28;20473;-73
2023/05/16 14:39:36;;;;;;;2.20;1.60;;;13.90;80.70;;;;;;5001756;28;20524;-74
2023/05/16 14:42:04;;;;;;;2.57;1.50;;;13.90;80.60;;;;;;5000970;28;20841;-74
2023/05/16 14:44:31;;;;;;;2.00;1.60;;;14.00;79.90;;;;;;5000150;28;20457;-74
2023/05/16 14:46:57;;;;;;;2.30;1.70;;;14.00;79.80;;;;;;4999415;28;20951;-75
2023/05/16 14:49:26;;;;;;;2.00;1.27;;;14.10;79.50;;;;;;4999422;28;20548;-73
2023/05/16 14:51:52;;;;;;;2.70;1.60;;;14.10;79.30;;;;;;5000378;28;20480;-73
2023/05/16 14:54:19;;;;;;;6.90;1.60;;;14.10;79.20;;;;;;4999858;28;20460;-73
2023/05/16 14:56:46;;;;;;;3.10;1.50;;;14.10;78.90;;;;;;5000001;28;20460;-73
2023/05/16 14:59:13;;;;;;;2.00;1.30;;;14.10;79.30;;;;;;5000778;28;20574;-73
2023/05/16 15:01:39;;;;;;;2.67;1.30;;;14.10;78.60;;;;;;4995907;28;20485;-73
2023/05/16 15:04:06;;;;;;;1.80;1.20;;;13.90;78.70;;;;;;4998773;28;20496;-73
2023/05/16 15:06:35;;;;;;;2.50;1.40;;;14.00;78.90;;;;;;5000577;28;20449;-73
2023/05/16 15:09:02;;;;;;;2.27;1.30;;;14.10;78.80;;;;;;5000493;28;20457;-73
2023/05/16 15:11:30;;;;;;;2.00;1.07;;;14.20;78.30;;;;;;5000769;28;20480;-73
2023/05/16 15:13:57;;;;;;;2.10;1.07;;;14.30;77.80;;;;;;5000516;28;20461;-73
2023/05/16 15:16:23;;;;;;;1.97;1.10;;;14.40;77.50;;;;;;5000122;28;20450;-75
2023/05/16 15:18:50;;;;;;;2.10;1.10;;;14.50;76.30;;;;;;4999300;28;20854;-73
2023/05/16 15:21:17;;;;;;;2.00;1.10;;;14.40;76.00;;;;;;4998871;28;20469;-73
2023/05/16 15:23:45;;;;;;;2.10;1.20;;;14.50;75.90;;;;;;4998244;28;20460;-73
2023/05/16 15:26:12;;;;;;;2.37;1.40;;;14.50;75.10;;;;;;4998623;28;20453;-74
2023/05/16 15:28:39;;;;;;;2.63;1.20;;;14.50;76.10;;;;;;4997690;28;20446;-74
2023/05/16 15:31:06;;;;;;;2.37;1.47;;;14.60;76.20;;;;;;4997631;28;20477;-74
2023/05/16 15:33:32;;;;;;;3.50;1.57;;;14.60;75.60;;;;;;4999156;28;20461;-74
2023/05/16 15:36:00;;;;;;;2.50;1.50;;;14.70;75.90;;;;;;4999006;28;20464;-73
2023/05/16 15:38:27;;;;;;;2.30;1.60;;;14.70;76.10;;;;;;4996309;28;20575;-73
2023/05/16 15:40:55;;;;;;;2.70;1.40;;;14.80;77.00;;;;;;4998040;28;20504;-73
2023/05/16 15:43:22;;;;;;;2.17;1.53;;;14.80;76.90;;;;;;4999255;28;20446;-74
2023/05/16 15:45:49;;;;;;;2.13;1.33;;;14.80;76.80;;;;;;4998244;28;20820;-75
2023/05/16 15:48:15;;;;;;;5.17;1.67;;;14.80;75.70;;;;;;4998740;28;20445;-74
2023/05/16 15:50:42;;;;;;;2.63;1.70;;;14.90;76.60;;;;;;4995875;28;20480;-73
2023/05/16 15:53:09;;;;;;;2.50;1.27;;;14.90;76.40;;;;;;4994717;28;20453;-73
2023/05/16 15:55:36;;;;;;;2.30;1.50;;;14.80;75.60;;;;;;4994412;28;20450;-73
2023/05/16 15:58:04;;;;;;;3.13;1.20;;;14.80;75.10;;;;;;4994628;28;20480;-73
2023/05/16 16:00:31;;;;;;;2.60;1.50;;;14.50;74.90;;;;;;4994719;28;20466;-73
2023/05/16 16:02:58;;;;;;;2.30;1.70;;;14.50;75.50;;;;;;4994895;28;20422;-73
2023/05/16 16:05:25;;;;;;;2.43;1.73;;;14.60;75.50;;;;;;4994508;28;20862;-73
2023/05/16 16:07:52;;;;;;;3.53;2.00;;;14.60;76.00;;;;;;4994485;28;20449;-73
2023/05/16 16:10:18;;;;;;;4.17;1.40;;;14.60;75.60;;;;;;4994980;28;20782;-73
2023/05/16 16:12:58;;;;;;;2.53;1.37;;;14.60;75.90;;;;;;4994375;28;20496;-73
2023/05/16 16:15:26;;;;;;;2.57;1.30;;;14.70;74.70;;;;;;5069554;22;20938;-73
2023/05/16 16:17:53;;;;;;;3.13;1.30;;;14.70;74.50;;;;;;5033276;28;20993;-73
2023/05/16 16:20:19;;;;;;;2.53;1.40;;;14.70;74.40;;;;;;5033913;28;20455;-73
2023/05/16 16:22:46;;;;;;;3.13;2.20;;;14.50;73.70;;;;;;5033609;28;20444;-74
2023/05/16 16:25:13;;;;;;;6.50;2.40;;;14.50;74.70;;;;;;5033445;28;20463;-74
2023/05/16 16:27:39;;;;;;;2.83;1.67;;;14.40;74.20;;;;;;5033572;28;20471;-74
2023/05/16 16:30:07;;;;;;;2.87;1.30;;;14.40;74.40;;;;;;5033175;28;20964;-73
2023/05/16 16:32:36;;;;;;;3.77;1.53;;;14.50;73.90;;;;;;5033176;28;21010;-74
2023/05/16 16:35:04;;;;;;;3.53;1.73;;;14.40;74.00;;;;;;5033030;28;21043;-74
2023/05/16 16:37:30;;;;;;;2.20;1.50;;;14.50;74.50;;;;;;5033043;28;20945;-74
2023/05/16 16:39:57;;;;;;;2.40;1.57;;;14.30;73.60;;;;;;5033362;28;20517;-74
2023/05/16 16:42:25;;;;;;;3.83;1.70;;;14.40;74.20;;;;;;5033365;28;20443;-74
2023/05/16 16:44:52;;;;;;;4.30;1.60;;;14.50;74.20;;;;;;5033204;28;20471;-74
2023/05/16 16:47:19;;;;;;;2.53;1.50;;;14.40;73.00;;;;;;5033276;28;20541;-74